createdAt,value
2023-03-10T00:01:32.985Z,3.82
2023-03-10T00:04:25.885Z,3.77
2023-03-10T00:07:18.753Z,3.72
2023-03-10T00:10:14.060Z,3.69
2023-03-10T00:13:06.835Z,3.67
2023-03-10T00:15:59.672Z,3.66
2023-03-10T00:18:53.000Z,3.66
2023-03-10T00:21:46.893Z,3.62
2023-03-10T00:24:39.891Z,3.54
2023-03-10T00:27:32.771Z,3.50
2023-03-10T00:30:25.645Z,3.46
2023-03-10T00:33:18.537Z,3.48
2023-03-10T00:36:13.889Z,3.49
2023-03-10T00:39:08.091Z,3.48
2023-03-10T00:42:02.316Z,3.46
2023-03-10T00:44:48.931Z,3.45
2023-03-10T00:47:43.270Z,3.38
2023-03-10T00:50:36.147Z,3.27
2023-03-10T00:53:30.547Z,3.17
2023-03-10T00:56:25.570Z,3.09
2023-03-10T00:59:20.181Z,3.00
2023-03-10T01:01:53.015Z,2.94
2023-03-10T01:04:28.814Z,2.89
2023-03-10T01:07:01.605Z,2.80
2023-03-10T01:09:41.931Z,2.75
2023-03-10T01:12:17.091Z,2.73
2023-03-10T01:14:49.636Z,2.71
2023-03-10T01:17:25.783Z,2.73
2023-03-10T01:20:01.470Z,2.76
2023-03-10T01:22:44.786Z,2.80
2023-03-10T01:25:20.628Z,2.81
2023-03-10T01:27:56.733Z,2.82
2023-03-10T01:30:37.682Z,2.84
2023-03-10T01:33:15.644Z,2.86
2023-03-10T01:35:51.644Z,2.85
2023-03-10T01:38:24.366Z,2.84
2023-03-10T01:40:58.055Z,2.83
2023-03-10T01:43:33.076Z,2.82
2023-03-10T01:46:42.130Z,2.81
2023-03-10T01:49:28.412Z,2.78
2023-03-10T01:52:05.029Z,2.75
2023-03-10T01:55:02.146Z,2.71
2023-03-10T01:57:56.957Z,2.69
2023-03-10T02:00:50.181Z,2.67
2023-03-10T02:03:49.558Z,2.64
2023-03-10T02:06:44.094Z,2.63
2023-03-10T02:09:44.590Z,2.63
2023-03-10T02:12:37.370Z,2.62
2023-03-10T02:15:33.996Z,2.62
2023-03-10T02:18:27.750Z,2.60
2023-03-10T02:21:31.091Z,2.59
2023-03-10T02:24:30.130Z,2.60
2023-03-10T02:27:25.956Z,2.60
2023-03-10T02:30:23.869Z,2.60
2023-03-10T02:33:19.781Z,2.57
2023-03-10T02:36:18.892Z,2.55
2023-03-10T02:39:11.916Z,2.53
2023-03-10T02:42:05.636Z,2.53
2023-03-10T02:44:59.017Z,2.54
2023-03-10T02:47:52.303Z,2.55
2023-03-10T02:50:48.137Z,2.55
2023-03-10T02:53:41.031Z,2.52
2023-03-10T02:56:34.448Z,2.49
2023-03-10T02:59:30.135Z,2.45
2023-03-10T03:02:23.058Z,2.40
2023-03-10T03:05:17.411Z,2.35
2023-03-10T03:08:11.916Z,2.29
2023-03-10T03:11:07.520Z,2.22
2023-03-10T03:13:53.446Z,2.16
2023-03-10T03:16:48.921Z,2.09
2023-03-10T03:19:42.087Z,2.01
2023-03-10T03:22:35.188Z,1.95
2023-03-10T03:25:30.542Z,1.92
2023-03-10T03:28:24.098Z,1.93
2023-03-10T03:31:21.866Z,1.99
2023-03-10T03:34:15.643Z,2.13
2023-03-10T03:37:08.562Z,2.34
2023-03-10T03:40:02.428Z,2.59
2023-03-10T03:42:56.048Z,2.82
2023-03-10T03:45:48.877Z,3.04
2023-03-10T03:48:40.687Z,3.23
2023-03-10T03:51:34.135Z,3.38
2023-03-10T03:54:26.952Z,3.54
2023-03-10T03:57:20.512Z,3.68
2023-03-10T04:00:18.319Z,3.83
2023-03-10T04:03:11.348Z,3.97
2023-03-10T04:06:04.230Z,4.11
2023-03-10T04:08:58.982Z,4.23
2023-03-10T04:11:51.796Z,4.31
2023-03-10T04:14:47.324Z,4.37
2023-03-10T04:17:40.275Z,4.43
2023-03-10T04:20:34.515Z,4.48
2023-03-10T04:23:27.359Z,4.52
2023-03-10T04:26:21.208Z,4.56
2023-03-10T04:29:14.513Z,4.59
2023-03-10T04:32:09.586Z,4.61
2023-03-10T04:35:02.411Z,4.65
2023-03-10T04:37:56.574Z,4.69
2023-03-10T04:40:56.823Z,4.71
2023-03-10T04:43:49.718Z,4.74
2023-03-10T04:46:42.764Z,4.76
2023-03-10T04:49:36.025Z,4.79
2023-03-10T04:52:28.852Z,4.83
2023-03-10T04:55:24.355Z,4.87
2023-03-10T04:58:17.177Z,4.92
2023-03-10T05:01:14.132Z,4.95
2023-03-10T05:04:07.953Z,4.98
2023-03-10T05:07:01.103Z,5.01
2023-03-10T05:09:53.972Z,5.06
2023-03-10T05:12:48.020Z,5.12
2023-03-10T05:15:41.393Z,5.17
2023-03-10T05:18:34.312Z,5.22
2023-03-10T05:21:27.231Z,5.28
2023-03-10T05:24:20.362Z,5.34
2023-03-10T05:27:15.039Z,5.41
2023-03-10T05:30:12.407Z,5.48
2023-03-10T05:33:05.448Z,5.55
2023-03-10T05:35:57.701Z,5.62
2023-03-10T05:38:40.981Z,5.69
2023-03-10T05:41:33.962Z,5.75
2023-03-10T05:44:26.684Z,5.80
2023-03-10T05:47:20.111Z,5.86
2023-03-10T05:50:24.597Z,5.95
2023-03-10T05:53:17.436Z,6.05
2023-03-10T05:56:12.311Z,6.16
2023-03-10T05:59:06.979Z,6.25
2023-03-10T06:01:59.868Z,6.37
2023-03-10T06:04:52.789Z,6.49
2023-03-10T06:07:46.586Z,6.61
2023-03-10T06:10:39.380Z,6.75
2023-03-10T06:13:32.703Z,6.89
2023-03-10T06:16:26.438Z,7.00
2023-03-10T06:19:19.640Z,7.10
2023-03-10T06:22:13.981Z,7.19
2023-03-10T06:25:11.454Z,7.27
2023-03-10T06:28:05.381Z,7.40
2023-03-10T06:31:00.171Z,7.55
2023-03-10T06:34:04.594Z,7.72
2023-03-10T06:36:57.688Z,7.88
2023-03-10T06:39:50.417Z,8.07
2023-03-10T06:42:44.022Z,8.26
2023-03-10T06:45:36.988Z,8.45
2023-03-10T06:48:29.882Z,8.60
2023-03-10T06:51:23.676Z,8.71
2023-03-10T06:54:16.461Z,8.83
2023-03-10T06:57:09.339Z,8.93
2023-03-10T07:00:02.226Z,9.05
2023-03-10T07:02:57.718Z,9.18
2023-03-10T07:05:50.678Z,9.37
2023-03-10T07:08:43.559Z,9.54
2023-03-10T07:11:27.004Z,9.69
2023-03-10T07:14:20.917Z,9.83
2023-03-10T07:17:13.877Z,9.95
2023-03-10T07:20:08.503Z,10.02
2023-03-10T07:22:52.810Z,10.08
2023-03-10T07:25:47.416Z,10.15
2023-03-10T07:28:40.877Z,10.25
2023-03-10T07:31:35.571Z,10.39
2023-03-10T07:34:28.793Z,10.54
2023-03-10T07:37:22.500Z,10.75
2023-03-10T07:40:15.768Z,10.94
2023-03-10T07:43:12.059Z,11.16
2023-03-10T07:46:08.566Z,11.36
2023-03-10T07:49:04.436Z,11.52
2023-03-10T07:51:57.391Z,11.65
2023-03-10T07:54:50.981Z,11.77
2023-03-10T07:57:44.033Z,11.88
2023-03-10T08:00:38.682Z,11.96
2023-03-10T08:03:32.228Z,12.03
2023-03-10T08:06:28.788Z,12.08
2023-03-10T08:09:21.729Z,12.15
2023-03-10T08:12:16.218Z,12.26
2023-03-10T08:15:11.246Z,12.40
2023-03-10T08:18:07.706Z,12.53
2023-03-10T08:21:01.137Z,12.63
2023-03-10T08:23:54.670Z,12.73
2023-03-10T08:26:40.254Z,12.80
2023-03-10T08:29:35.332Z,12.81
2023-03-10T08:32:28.480Z,12.84
2023-03-10T08:35:23.025Z,12.91
2023-03-10T08:38:15.892Z,13.01
2023-03-10T08:41:17.985Z,13.12
2023-03-10T08:44:01.990Z,13.24
2023-03-10T08:46:57.085Z,13.35
2023-03-10T08:49:49.924Z,13.45
2023-03-10T08:52:47.606Z,13.58
2023-03-10T08:55:40.758Z,13.66
2023-03-10T08:58:37.007Z,13.74
2023-03-10T09:01:31.815Z,13.86
2023-03-10T09:04:25.560Z,13.98
2023-03-10T09:07:19.191Z,14.08
2023-03-10T09:10:14.217Z,14.19
2023-03-10T09:13:12.626Z,14.23
2023-03-10T09:16:11.150Z,14.31
2023-03-10T09:18:52.938Z,14.38
2023-03-10T09:21:46.088Z,14.47
2023-03-10T09:24:38.934Z,14.56
2023-03-10T09:27:34.116Z,14.66
2023-03-10T09:30:27.434Z,14.75
2023-03-10T09:33:23.643Z,14.81
2023-03-10T09:36:17.473Z,14.83
2023-03-10T09:39:11.590Z,14.90
2023-03-10T09:42:38.844Z,14.99
2023-03-10T09:45:33.641Z,15.07
2023-03-10T09:48:47.920Z,15.11
2023-03-10T09:51:47.471Z,15.15
2023-03-10T09:55:01.850Z,15.21
2023-03-10T09:57:57.076Z,15.34
2023-03-10T10:00:50.209Z,15.44
2023-03-10T10:03:52.976Z,15.56
2023-03-10T10:06:50.129Z,15.64
2023-03-10T10:09:48.357Z,15.72
2023-03-10T10:12:42.660Z,15.77
2023-03-10T10:15:39.127Z,15.79
2023-03-10T10:18:46.529Z,15.80
2023-03-10T10:21:49.483Z,15.80
2023-03-10T10:24:42.403Z,15.84
2023-03-10T10:27:39.704Z,15.92
2023-03-10T10:30:37.149Z,16.01
2023-03-10T10:33:30.610Z,16.09
2023-03-10T10:36:24.628Z,16.15
2023-03-10T10:39:28.516Z,16.22
2023-03-10T10:42:25.602Z,16.31
2023-03-10T10:45:30.314Z,16.40
2023-03-10T10:48:39.724Z,16.53
2023-03-10T10:51:36.022Z,16.63
2023-03-10T10:54:29.630Z,16.66
2023-03-10T10:57:25.367Z,16.65
2023-03-10T11:00:25.356Z,16.65
2023-03-10T11:03:31.339Z,16.55
2023-03-10T11:06:32.350Z,16.51
2023-03-10T11:09:26.281Z,16.54
2023-03-10T11:12:27.493Z,16.55
2023-03-10T11:15:24.706Z,16.56
2023-03-10T11:18:24.161Z,16.60
2023-03-10T11:21:39.003Z,16.65
2023-03-10T11:24:37.808Z,16.68
2023-03-10T11:27:44.100Z,16.75
2023-03-10T11:30:39.822Z,16.85
2023-03-10T11:33:40.104Z,16.92
2023-03-10T11:36:55.059Z,17.00
2023-03-10T11:39:43.376Z,17.05
2023-03-10T11:42:26.965Z,17.11
2023-03-10T11:45:29.107Z,17.18
2023-03-10T11:48:21.586Z,17.22
2023-03-10T11:51:19.476Z,17.23
2023-03-10T11:54:11.920Z,17.22
2023-03-10T11:57:14.236Z,17.27
2023-03-10T11:59:54.736Z,17.29
2023-03-10T12:02:49.675Z,17.34
2023-03-10T12:05:47.330Z,17.32
2023-03-10T12:08:34.627Z,17.31
2023-03-10T12:11:30.516Z,17.33
2023-03-10T12:14:15.918Z,17.37
2023-03-10T12:16:53.210Z,17.39
2023-03-10T12:19:29.115Z,17.46
2023-03-10T12:22:37.392Z,17.53
2023-03-10T12:25:46.356Z,17.64
2023-03-10T12:28:39.650Z,17.75
2023-03-10T12:31:49.680Z,17.74
2023-03-10T12:34:28.099Z,17.65
2023-03-10T12:37:25.751Z,17.72
2023-03-10T12:40:47.252Z,17.81
2023-03-10T12:43:57.453Z,17.88
2023-03-10T12:46:54.078Z,18.04
2023-03-10T12:49:58.424Z,18.18
2023-03-10T12:52:58.673Z,18.20
2023-03-10T12:56:19.536Z,18.04
2023-03-10T12:59:20.700Z,17.81
2023-03-10T13:02:25.485Z,17.64
2023-03-10T13:05:26.057Z,17.57
2023-03-10T13:08:22.992Z,17.53
2023-03-10T13:11:31.069Z,17.47
2023-03-10T13:14:34.235Z,17.48
2023-03-10T13:17:26.880Z,17.57
2023-03-10T13:20:22.650Z,17.68
2023-03-10T13:23:24.544Z,17.75
2023-03-10T13:26:19.453Z,17.78
2023-03-10T13:29:20.918Z,17.79
2023-03-10T13:32:21.747Z,17.82
2023-03-10T13:35:25.750Z,17.75
2023-03-10T13:38:22.088Z,17.67
2023-03-10T13:41:15.493Z,17.57
2023-03-10T13:44:17.212Z,17.53
2023-03-10T13:47:18.784Z,17.46
2023-03-10T13:50:18.186Z,17.42
2023-03-10T13:53:26.960Z,17.39
2023-03-10T13:56:23.801Z,17.35
2023-03-10T13:59:21.495Z,17.34
2023-03-10T14:02:20.474Z,17.28
2023-03-10T14:05:43.710Z,17.20
2023-03-10T14:08:36.807Z,17.16
2023-03-10T14:11:41.107Z,17.10
2023-03-10T14:14:32.634Z,17.01
2023-03-10T14:17:35.921Z,16.97
2023-03-10T14:20:31.925Z,16.88
2023-03-10T14:23:35.716Z,16.84
2023-03-10T14:26:28.650Z,16.80
2023-03-10T14:29:22.133Z,16.77
2023-03-10T14:32:16.248Z,16.77
2023-03-10T14:35:15.891Z,16.76
2023-03-10T14:38:09.220Z,16.70
2023-03-10T14:41:03.156Z,16.62
2023-03-10T14:43:56.404Z,16.53
2023-03-10T14:46:53.462Z,16.47
2023-03-10T14:49:47.291Z,16.44
2023-03-10T14:52:42.252Z,16.36
2023-03-10T14:55:35.778Z,16.32
2023-03-10T14:58:32.977Z,16.30
2023-03-10T15:01:26.103Z,16.30
2023-03-10T15:04:20.261Z,16.26
2023-03-10T15:07:15.513Z,16.20
2023-03-10T15:10:11.456Z,16.13
2023-03-10T15:13:04.959Z,15.98
2023-03-10T15:15:58.059Z,15.72
2023-03-10T15:18:53.443Z,15.48
2023-03-10T15:21:46.636Z,15.28
2023-03-10T15:24:38.664Z,15.11
2023-03-10T15:27:34.661Z,14.92
2023-03-10T15:30:29.861Z,14.73
2023-03-10T15:33:16.421Z,14.53
2023-03-10T15:36:11.178Z,14.35
2023-03-10T15:39:06.982Z,14.18
2023-03-10T15:42:00.215Z,14.04
2023-03-10T15:45:14.759Z,13.92
2023-03-10T15:48:09.190Z,13.82
2023-03-10T15:51:02.291Z,13.74
2023-03-10T15:53:55.269Z,13.66
2023-03-10T15:56:49.237Z,13.58
2023-03-10T15:59:42.716Z,13.50
2023-03-10T16:02:35.831Z,13.43
2023-03-10T16:05:28.990Z,13.36
2023-03-10T16:08:12.863Z,13.28
2023-03-10T16:10:58.906Z,13.20
2023-03-10T16:13:31.701Z,13.12
2023-03-10T16:16:26.524Z,13.04
2023-03-10T16:18:59.642Z,12.95
2023-03-10T16:21:32.763Z,12.86
2023-03-10T16:24:08.930Z,12.78
2023-03-10T16:26:56.577Z,12.72
2023-03-10T16:29:32.357Z,12.70
2023-03-10T16:32:08.369Z,12.68
2023-03-10T16:34:54.419Z,12.65
2023-03-10T16:37:32.350Z,12.59
2023-03-10T16:40:25.425Z,12.54
2023-03-10T16:43:01.030Z,12.49
2023-03-10T16:45:54.216Z,12.43
2023-03-10T16:48:42.322Z,12.35
2023-03-10T16:51:27.910Z,12.29
2023-03-10T16:54:02.243Z,12.24
2023-03-10T16:56:40.768Z,12.19
2023-03-10T16:59:18.748Z,12.16
2023-03-10T17:01:52.421Z,12.17
2023-03-10T17:04:25.853Z,12.21
2023-03-10T17:06:59.323Z,12.25
2023-03-10T17:09:32.081Z,12.30
2023-03-10T17:12:05.621Z,12.32
2023-03-10T17:14:38.753Z,12.34
2023-03-10T17:17:11.586Z,12.34
2023-03-10T17:19:44.766Z,12.33
2023-03-10T17:22:17.468Z,12.33
2023-03-10T17:24:55.420Z,12.32
2023-03-10T17:27:26.557Z,12.31
2023-03-10T17:29:59.822Z,12.29
2023-03-10T17:32:32.667Z,12.26
2023-03-10T17:35:11.782Z,12.26
2023-03-10T17:37:46.547Z,12.26
2023-03-10T17:40:21.700Z,12.27
2023-03-10T17:42:54.649Z,12.29
2023-03-10T17:45:33.838Z,12.29
2023-03-10T17:48:06.930Z,12.29
2023-03-10T17:50:39.831Z,12.27
2023-03-10T17:53:12.763Z,12.23
2023-03-10T17:55:45.886Z,12.22
2023-03-10T17:58:30.746Z,12.21
2023-03-10T18:01:09.947Z,12.20
2023-03-10T18:03:43.407Z,12.18
2023-03-10T18:06:17.612Z,12.16
2023-03-10T18:08:50.734Z,12.14
2023-03-10T18:11:25.585Z,12.10
2023-03-10T18:13:58.327Z,12.06
2023-03-10T18:16:33.446Z,12.01
2023-03-10T18:19:10.203Z,11.96
2023-03-10T18:21:46.443Z,11.90
2023-03-10T18:24:19.267Z,11.85
2023-03-10T18:26:51.936Z,11.81
2023-03-10T18:29:24.783Z,11.78
2023-03-10T18:31:57.396Z,11.77
2023-03-10T18:34:31.916Z,11.77
2023-03-10T18:37:04.669Z,11.77
2023-03-10T18:39:41.057Z,11.76
2023-03-10T18:42:15.348Z,11.75
2023-03-10T18:44:50.817Z,11.71
2023-03-10T18:47:23.970Z,11.66
2023-03-10T18:49:58.706Z,11.61
2023-03-10T18:52:33.148Z,11.56
2023-03-10T18:55:06.660Z,11.51
2023-03-10T18:57:40.409Z,11.48
2023-03-10T19:00:18.953Z,11.47
2023-03-10T19:02:57.096Z,11.47
2023-03-10T19:05:28.400Z,11.48
2023-03-10T19:08:02.762Z,11.49
2023-03-10T19:10:39.406Z,11.50
2023-03-10T19:13:12.176Z,11.53
2023-03-10T19:15:48.646Z,11.56
2023-03-10T19:18:22.042Z,11.54
2023-03-10T19:21:03.100Z,11.55
2023-03-10T19:23:35.094Z,11.53
2023-03-10T19:26:09.093Z,11.49
2023-03-10T19:28:51.851Z,11.43
2023-03-10T19:31:24.530Z,11.39
2023-03-10T19:33:57.274Z,11.34
2023-03-10T19:36:30.163Z,11.31
2023-03-10T19:39:02.936Z,11.31
2023-03-10T19:41:35.502Z,11.29
2023-03-10T19:44:08.640Z,11.30
2023-03-10T19:46:41.558Z,11.29
2023-03-10T19:49:14.664Z,11.28
2023-03-10T19:51:48.176Z,11.26
2023-03-10T19:54:22.132Z,11.22
2023-03-10T19:56:58.473Z,11.15
2023-03-10T19:59:31.275Z,11.08
2023-03-10T20:02:04.487Z,11.01
2023-03-10T20:04:39.103Z,10.94
2023-03-10T20:07:13.501Z,10.89
2023-03-10T20:09:48.178Z,10.85
2023-03-10T20:12:20.998Z,10.81
2023-03-10T20:14:58.809Z,10.76
2023-03-10T20:17:34.628Z,10.70
2023-03-10T20:20:10.700Z,10.64
2023-03-10T20:22:45.662Z,10.57
2023-03-10T20:25:21.101Z,10.50
2023-03-10T20:27:56.642Z,10.44
2023-03-10T20:30:32.397Z,10.40
2023-03-10T20:33:05.831Z,10.35
2023-03-10T20:35:38.663Z,10.32
2023-03-10T20:38:14.258Z,10.28
2023-03-10T20:40:50.804Z,10.24
2023-03-10T20:43:23.420Z,10.22
2023-03-10T20:45:59.238Z,10.22
2023-03-10T20:48:32.497Z,10.21
2023-03-10T20:51:07.486Z,10.22
2023-03-10T20:53:43.663Z,10.24
2023-03-10T20:56:16.730Z,10.27
2023-03-10T20:58:49.538Z,10.30
2023-03-10T21:01:25.674Z,10.30
2023-03-10T21:04:01.643Z,10.32
2023-03-10T21:06:36.273Z,10.34
2023-03-10T21:09:09.214Z,10.36
2023-03-10T21:11:44.282Z,10.38
2023-03-10T21:14:30.350Z,10.41
2023-03-10T21:17:12.219Z,10.44
2023-03-10T21:20:08.085Z,10.47
2023-03-10T21:23:00.932Z,10.49
2023-03-10T21:25:39.835Z,10.50
2023-03-10T21:28:21.809Z,10.51
2023-03-10T21:30:57.550Z,10.54
2023-03-10T21:33:42.169Z,10.55
2023-03-10T21:36:21.170Z,10.56
2023-03-10T21:39:14.438Z,10.55
2023-03-10T21:41:50.313Z,10.55
2023-03-10T21:44:43.565Z,10.54
2023-03-10T21:47:29.164Z,10.53
2023-03-10T21:50:14.990Z,10.51
2023-03-10T21:52:59.696Z,10.49
2023-03-10T21:55:43.341Z,10.46
2023-03-10T21:58:30.275Z,10.45
2023-03-10T22:01:23.640Z,10.41
2023-03-10T22:04:15.926Z,10.39
2023-03-10T22:06:51.871Z,10.35
2023-03-10T22:09:37.389Z,10.32
2023-03-10T22:12:12.844Z,10.29
2023-03-10T22:14:47.614Z,10.25
2023-03-10T22:17:40.761Z,10.21
2023-03-10T22:20:33.885Z,10.18
2023-03-10T22:23:20.470Z,10.15
2023-03-10T22:26:03.985Z,10.11
2023-03-10T22:28:57.002Z,10.07
2023-03-10T22:31:39.902Z,10.02
2023-03-10T22:34:20.313Z,9.97
2023-03-10T22:37:13.575Z,9.95
2023-03-10T22:39:59.233Z,9.93
2023-03-10T22:42:52.790Z,9.93
2023-03-10T22:45:47.702Z,9.92
2023-03-10T22:48:20.676Z,9.90
2023-03-10T22:51:06.348Z,9.89
2023-03-10T22:53:59.213Z,9.89
2023-03-10T22:56:52.263Z,9.86
2023-03-10T22:59:40.700Z,9.82
2023-03-10T23:02:33.551Z,9.79
2023-03-10T23:05:17.920Z,9.77
2023-03-10T23:08:01.949Z,9.74
2023-03-10T23:10:48.580Z,9.71
2023-03-10T23:13:26.266Z,9.69
2023-03-10T23:16:05.895Z,9.66
2023-03-10T23:18:58.919Z,9.62
2023-03-10T23:21:47.905Z,9.57
2023-03-10T23:24:22.478Z,9.51
2023-03-10T23:27:02.726Z,9.44
2023-03-10T23:29:50.069Z,9.35
2023-03-10T23:32:25.985Z,9.29
2023-03-10T23:34:58.885Z,9.23
2023-03-10T23:37:42.223Z,9.18
2023-03-10T23:40:36.501Z,9.13
2023-03-10T23:43:29.414Z,9.11
2023-03-10T23:46:15.126Z,9.07
2023-03-10T23:49:07.605Z,9.04
2023-03-10T23:52:00.443Z,9.05
2023-03-10T23:54:46.448Z,9.06
2023-03-10T23:57:40.152Z,9.04
